sensor_id;sensor_type;location;lat;lon;timestamp;temperature;humidity
65371;DHT22;58485;59.934;30.352;2022-08-03T00:00:13;24.91;56.68
65371;DHT22;58485;59.934;30.352;2022-08-03T00:01:05;24.91;56.68
65371;DHT22;58485;59.934;30.352;2022-08-03T00:01:57;24.91;56.70
65371;DHT22;58485;59.934;30.352;2022-08-03T00:02:48;24.92;56.71
65371;DHT22;58485;59.934;30.352;2022-08-03T00:03:41;24.93;56.68
65371;DHT22;58485;59.934;30.352;2022-08-03T00:04:32;24.92;56.68
65371;DHT22;58485;59.934;30.352;2022-08-03T00:05:25;24.92;56.69
65371;DHT22;58485;59.934;30.352;2022-08-03T00:06:17;24.91;56.70
65371;DHT22;58485;59.934;30.352;2022-08-03T00:07:09;24.91;56.70
65371;DHT22;58485;59.934;30.352;2022-08-03T00:08:00;24.92;56.71
65371;DHT22;58485;59.934;30.352;2022-08-03T00:08:53;24.92;56.74
65371;DHT22;58485;59.934;30.352;2022-08-03T00:09:44;24.91;56.75
65371;DHT22;58485;59.934;30.352;2022-08-03T00:10:36;24.91;56.77
65371;DHT22;58485;59.934;30.352;2022-08-03T00:11:28;24.92;56.77
65371;DHT22;58485;59.934;30.352;2022-08-03T00:12:20;24.91;56.78
65371;DHT22;58485;59.934;30.352;2022-08-03T00:13:11;24.91;56.74
65371;DHT22;58485;59.934;30.352;2022-08-03T00:14:03;24.91;56.71
65371;DHT22;58485;59.934;30.352;2022-08-03T00:14:55;24.92;56.70
65371;DHT22;58485;59.934;30.352;2022-08-03T00:15:47;24.92;56.72
65371;DHT22;58485;59.934;30.352;2022-08-03T00:16:38;24.92;56.71
65371;DHT22;58485;59.934;30.352;2022-08-03T00:17:30;24.91;56.67
65371;DHT22;58485;59.934;30.352;2022-08-03T00:18:21;24.91;56.64
65371;DHT22;58485;59.934;30.352;2022-08-03T00:19:14;24.90;56.67
65371;DHT22;58485;59.934;30.352;2022-08-03T00:20:05;24.92;56.68
65371;DHT22;58485;59.934;30.352;2022-08-03T00:20:59;24.90;56.71
65371;DHT22;58485;59.934;30.352;2022-08-03T00:21:51;24.90;56.74
65371;DHT22;58485;59.934;30.352;2022-08-03T00:22:43;24.90;56.74
65371;DHT22;58485;59.934;30.352;2022-08-03T00:23:34;24.90;56.73
65371;DHT22;58485;59.934;30.352;2022-08-03T00:24:26;24.91;56.74
65371;DHT22;58485;59.934;30.352;2022-08-03T00:25:18;24.91;56.72
65371;DHT22;58485;59.934;30.352;2022-08-03T00:26:10;24.91;56.66
65371;DHT22;58485;59.934;30.352;2022-08-03T00:27:01;24.91;56.63
65371;DHT22;58485;59.934;30.352;2022-08-03T00:27:53;24.91;56.62
65371;DHT22;58485;59.934;30.352;2022-08-03T00:28:45;24.90;56.63
65371;DHT22;58485;59.934;30.352;2022-08-03T00:29:37;24.90;56.63
65371;DHT22;58485;59.934;30.352;2022-08-03T00:30:28;24.90;56.62
65371;DHT22;58485;59.934;30.352;2022-08-03T00:31:21;24.89;56.57
65371;DHT22;58485;59.934;30.352;2022-08-03T00:32:12;24.88;56.61
65371;DHT22;58485;59.934;30.352;2022-08-03T00:33:04;24.90;56.65
65371;DHT22;58485;59.934;30.352;2022-08-03T00:33:55;24.91;56.67
65371;DHT22;58485;59.934;30.352;2022-08-03T00:34:47;24.91;56.64
65371;DHT22;58485;59.934;30.352;2022-08-03T00:35:39;24.89;56.63
65371;DHT22;58485;59.934;30.352;2022-08-03T00:36:32;24.90;56.57
65371;DHT22;58485;59.934;30.352;2022-08-03T00:37:23;24.90;56.54
65371;DHT22;58485;59.934;30.352;2022-08-03T00:38:16;24.89;56.52
65371;DHT22;58485;59.934;30.352;2022-08-03T00:39:07;24.89;56.54
65371;DHT22;58485;59.934;30.352;2022-08-03T00:40:00;24.90;56.52
65371;DHT22;58485;59.934;30.352;2022-08-03T00:40:51;24.89;56.55
65371;DHT22;58485;59.934;30.352;2022-08-03T00:41:43;24.87;56.53
65371;DHT22;58485;59.934;30.352;2022-08-03T00:42:34;24.88;56.55
65371;DHT22;58485;59.934;30.352;2022-08-03T00:43:36;24.87;56.61
65371;DHT22;58485;59.934;30.352;2022-08-03T00:44:29;24.88;56.63
65371;DHT22;58485;59.934;30.352;2022-08-03T00:45:22;24.88;56.64
65371;DHT22;58485;59.934;30.352;2022-08-03T00:46:15;24.89;56.66
65371;DHT22;58485;59.934;30.352;2022-08-03T00:47:06;24.87;56.67
65371;DHT22;58485;59.934;30.352;2022-08-03T00:48:00;24.87;56.64
65371;DHT22;58485;59.934;30.352;2022-08-03T00:48:52;24.87;56.60
65371;DHT22;58485;59.934;30.352;2022-08-03T00:49:44;24.88;56.64
65371;DHT22;58485;59.934;30.352;2022-08-03T00:50:39;24.87;56.62
65371;DHT22;58485;59.934;30.352;2022-08-03T00:51:33;24.86;56.66
65371;DHT22;58485;59.934;30.352;2022-08-03T00:52:24;24.87;56.63
65371;DHT22;58485;59.934;30.352;2022-08-03T00:53:17;24.87;56.68
65371;DHT22;58485;59.934;30.352;2022-08-03T00:54:09;24.87;56.68
65371;DHT22;58485;59.934;30.352;2022-08-03T00:55:02;24.87;56.69
65371;DHT22;58485;59.934;30.352;2022-08-03T00:55:53;24.86;56.71
65371;DHT22;58485;59.934;30.352;2022-08-03T00:56:46;24.88;56.68
65371;DHT22;58485;59.934;30.352;2022-08-03T00:57:37;24.87;56.64
65371;DHT22;58485;59.934;30.352;2022-08-03T00:58:30;24.87;56.63
65371;DHT22;58485;59.934;30.352;2022-08-03T00:59:21;24.87;56.62
65371;DHT22;58485;59.934;30.352;2022-08-03T01:00:16;24.86;56.63
65371;DHT22;58485;59.934;30.352;2022-08-03T01:01:09;24.86;56.65
65371;DHT22;58485;59.934;30.352;2022-08-03T01:02:01;24.85;56.68
65371;DHT22;58485;59.934;30.352;2022-08-03T01:02:53;24.86;56.72
65371;DHT22;58485;59.934;30.352;2022-08-03T01:03:45;24.86;56.71
65371;DHT22;58485;59.934;30.352;2022-08-03T01:04:37;24.86;56.68
65371;DHT22;58485;59.934;30.352;2022-08-03T01:05:29;24.87;56.68
65371;DHT22;58485;59.934;30.352;2022-08-03T01:06:32;24.87;56.68
65371;DHT22;58485;59.934;30.352;2022-08-03T01:07:36;24.87;56.68
65371;DHT22;58485;59.934;30.352;2022-08-03T01:08:42;24.85;56.71
65371;DHT22;58485;59.934;30.352;2022-08-03T01:09:47;24.85;56.81
65371;DHT22;58485;59.934;30.352;2022-08-03T01:10:48;24.86;56.83
65371;DHT22;58485;59.934;30.352;2022-08-03T01:11:50;24.85;56.81
65371;DHT22;58485;59.934;30.352;2022-08-03T01:12:51;24.85;56.79
65371;DHT22;58485;59.934;30.352;2022-08-03T01:13:54;24.85;56.81
65371;DHT22;58485;59.934;30.352;2022-08-03T01:14:54;24.85;56.82
65371;DHT22;58485;59.934;30.352;2022-08-03T01:15:55;24.84;56.81
65371;DHT22;58485;59.934;30.352;2022-08-03T01:16:56;24.84;56.84
65371;DHT22;58485;59.934;30.352;2022-08-03T01:17:52;24.84;56.82
65371;DHT22;58485;59.934;30.352;2022-08-03T01:18:51;24.84;56.86
65371;DHT22;58485;59.934;30.352;2022-08-03T01:19:49;24.83;56.87
65371;DHT22;58485;59.934;30.352;2022-08-03T01:20:47;24.82;56.86
65371;DHT22;58485;59.934;30.352;2022-08-03T01:22:09;24.82;56.84
65371;DHT22;58485;59.934;30.352;2022-08-03T01:23:39;24.80;56.81
65371;DHT22;58485;59.934;30.352;2022-08-03T01:24:47;24.80;56.86
65371;DHT22;58485;59.934;30.352;2022-08-03T01:25:59;24.80;56.84
65371;DHT22;58485;59.934;30.352;2022-08-03T01:27:06;24.78;56.70
65371;DHT22;58485;59.934;30.352;2022-08-03T01:28:10;24.79;56.78
65371;DHT22;58485;59.934;30.352;2022-08-03T01:29:46;24.77;56.90
65371;DHT22;58485;59.934;30.352;2022-08-03T01:30:45;24.75;56.87
65371;DHT22;58485;59.934;30.352;2022-08-03T01:31:42;24.76;56.86
65371;DHT22;58485;59.934;30.352;2022-08-03T01:32:41;24.76;56.89
65371;DHT22;58485;59.934;30.352;2022-08-03T01:33:39;24.77;56.88
65371;DHT22;58485;59.934;30.352;2022-08-03T01:34:39;24.77;56.92
65371;DHT22;58485;59.934;30.352;2022-08-03T01:35:35;24.75;56.90
65371;DHT22;58485;59.934;30.352;2022-08-03T01:36:32;24.77;56.86
65371;DHT22;58485;59.934;30.352;2022-08-03T01:37:34;24.75;56.85
65371;DHT22;58485;59.934;30.352;2022-08-03T01:38:31;24.76;56.76
65371;DHT22;58485;59.934;30.352;2022-08-03T01:39:26;24.76;56.83
65371;DHT22;58485;59.934;30.352;2022-08-03T01:40:19;24.76;56.81
65371;DHT22;58485;59.934;30.352;2022-08-03T01:41:16;24.76;56.83
65371;DHT22;58485;59.934;30.352;2022-08-03T01:42:10;24.76;56.90
65371;DHT22;58485;59.934;30.352;2022-08-03T01:43:05;24.77;56.84
65371;DHT22;58485;59.934;30.352;2022-08-03T01:44:00;24.78;56.77
65371;DHT22;58485;59.934;30.352;2022-08-03T01:44:56;24.77;56.81
65371;DHT22;58485;59.934;30.352;2022-08-03T01:45:49;24.78;56.81
65371;DHT22;58485;59.934;30.352;2022-08-03T01:46:43;24.78;56.76
65371;DHT22;58485;59.934;30.352;2022-08-03T01:47:39;24.77;56.77
65371;DHT22;58485;59.934;30.352;2022-08-03T01:48:33;24.79;56.71
65371;DHT22;58485;59.934;30.352;2022-08-03T01:49:26;24.78;56.72
65371;DHT22;58485;59.934;30.352;2022-08-03T01:50:22;24.77;56.69
65371;DHT22;58485;59.934;30.352;2022-08-03T01:51:17;24.78;56.68
65371;DHT22;58485;59.934;30.352;2022-08-03T01:52:10;24.78;56.75
65371;DHT22;58485;59.934;30.352;2022-08-03T01:53:04;24.78;56.74
65371;DHT22;58485;59.934;30.352;2022-08-03T01:53:59;24.78;56.71
65371;DHT22;58485;59.934;30.352;2022-08-03T01:54:52;24.78;56.71
65371;DHT22;58485;59.934;30.352;2022-08-03T01:55:49;24.79;56.62
65371;DHT22;58485;59.934;30.352;2022-08-03T01:56:43;24.78;56.68
65371;DHT22;58485;59.934;30.352;2022-08-03T01:57:37;24.77;56.67
65371;DHT22;58485;59.934;30.352;2022-08-03T01:58:31;24.78;56.68
65371;DHT22;58485;59.934;30.352;2022-08-03T01:59:25;24.79;56.68
65371;DHT22;58485;59.934;30.352;2022-08-03T02:00:20;24.78;56.66
65371;DHT22;58485;59.934;30.352;2022-08-03T02:01:15;24.78;56.73
65371;DHT22;58485;59.934;30.352;2022-08-03T02:02:07;24.79;56.76
65371;DHT22;58485;59.934;30.352;2022-08-03T02:03:03;24.79;56.78
65371;DHT22;58485;59.934;30.352;2022-08-03T02:03:56;24.79;56.78
65371;DHT22;58485;59.934;30.352;2022-08-03T02:04:51;24.79;56.82
65371;DHT22;58485;59.934;30.352;2022-08-03T02:05:45;24.79;56.84
65371;DHT22;58485;59.934;30.352;2022-08-03T02:06:38;24.78;56.87
65371;DHT22;58485;59.934;30.352;2022-08-03T02:07:31;24.79;56.87
65371;DHT22;58485;59.934;30.352;2022-08-03T02:08:26;24.79;56.90
65371;DHT22;58485;59.934;30.352;2022-08-03T02:09:20;24.79;56.90
65371;DHT22;58485;59.934;30.352;2022-08-03T02:10:15;24.78;56.87
65371;DHT22;58485;59.934;30.352;2022-08-03T02:11:09;24.78;56.84
65371;DHT22;58485;59.934;30.352;2022-08-03T02:12:05;24.79;56.82
65371;DHT22;58485;59.934;30.352;2022-08-03T02:13:00;24.80;56.82
65371;DHT22;58485;59.934;30.352;2022-08-03T02:13:53;24.79;56.81
65371;DHT22;58485;59.934;30.352;2022-08-03T02:14:46;24.78;56.81
65371;DHT22;58485;59.934;30.352;2022-08-03T02:15:41;24.79;56.79
65371;DHT22;58485;59.934;30.352;2022-08-03T02:16:35;24.79;56.81
65371;DHT22;58485;59.934;30.352;2022-08-03T02:17:28;24.78;56.79
65371;DHT22;58485;59.934;30.352;2022-08-03T02:18:20;24.79;56.77
65371;DHT22;58485;59.934;30.352;2022-08-03T02:19:13;24.79;56.80
65371;DHT22;58485;59.934;30.352;2022-08-03T02:20:08;24.79;56.81
65371;DHT22;58485;59.934;30.352;2022-08-03T02:21:02;24.78;56.83
65371;DHT22;58485;59.934;30.352;2022-08-03T02:21:54;24.79;56.79
65371;DHT22;58485;59.934;30.352;2022-08-03T02:22:46;24.78;56.77
65371;DHT22;58485;59.934;30.352;2022-08-03T02:23:39;24.79;56.79
65371;DHT22;58485;59.934;30.352;2022-08-03T02:24:31;24.79;56.81
65371;DHT22;58485;59.934;30.352;2022-08-03T02:25:22;24.79;56.79
65371;DHT22;58485;59.934;30.352;2022-08-03T02:26:16;24.79;56.77
65371;DHT22;58485;59.934;30.352;2022-08-03T02:27:15;24.78;56.68
65371;DHT22;58485;59.934;30.352;2022-08-03T02:28:12;24.77;56.74
65371;DHT22;58485;59.934;30.352;2022-08-03T02:29:12;24.78;56.71
65371;DHT22;58485;59.934;30.352;2022-08-03T02:30:08;24.78;56.73
65371;DHT22;58485;59.934;30.352;2022-08-03T02:31:06;24.79;56.75
65371;DHT22;58485;59.934;30.352;2022-08-03T02:32:01;24.78;56.74
65371;DHT22;58485;59.934;30.352;2022-08-03T02:32:55;24.78;56.73
65371;DHT22;58485;59.934;30.352;2022-08-03T02:33:51;24.78;56.73
65371;DHT22;58485;59.934;30.352;2022-08-03T02:34:46;24.78;56.71
65371;DHT22;58485;59.934;30.352;2022-08-03T02:35:40;24.78;56.68
65371;DHT22;58485;59.934;30.352;2022-08-03T02:36:36;24.77;56.69
65371;DHT22;58485;59.934;30.352;2022-08-03T02:37:33;24.77;56.66
65371;DHT22;58485;59.934;30.352;2022-08-03T02:38:31;24.77;56.64
65371;DHT22;58485;59.934;30.352;2022-08-03T02:39:27;24.77;56.64
65371;DHT22;58485;59.934;30.352;2022-08-03T02:40:22;24.77;56.70
65371;DHT22;58485;59.934;30.352;2022-08-03T02:41:17;24.77;56.66
65371;DHT22;58485;59.934;30.352;2022-08-03T02:42:13;24.77;56.65
65371;DHT22;58485;59.934;30.352;2022-08-03T02:43:07;24.77;56.70
65371;DHT22;58485;59.934;30.352;2022-08-03T02:44:03;24.76;56.69
65371;DHT22;58485;59.934;30.352;2022-08-03T02:45:01;24.77;56.63
65371;DHT22;58485;59.934;30.352;2022-08-03T02:45:55;24.77;56.64
65371;DHT22;58485;59.934;30.352;2022-08-03T02:46:53;24.76;56.68
65371;DHT22;58485;59.934;30.352;2022-08-03T02:47:46;24.76;56.65
65371;DHT22;58485;59.934;30.352;2022-08-03T02:48:40;24.75;56.65
65371;DHT22;58485;59.934;30.352;2022-08-03T02:49:33;24.75;56.66
65371;DHT22;58485;59.934;30.352;2022-08-03T02:50:25;24.76;56.69
65371;DHT22;58485;59.934;30.352;2022-08-03T02:51:20;24.76;56.70
65371;DHT22;58485;59.934;30.352;2022-08-03T02:52:13;24.77;56.72
65371;DHT22;58485;59.934;30.352;2022-08-03T02:53:06;24.75;56.72
65371;DHT22;58485;59.934;30.352;2022-08-03T02:54:01;24.77;56.71
65371;DHT22;58485;59.934;30.352;2022-08-03T02:54:56;24.76;56.73
65371;DHT22;58485;59.934;30.352;2022-08-03T02:55:49;24.76;56.73
65371;DHT22;58485;59.934;30.352;2022-08-03T02:56:42;24.76;56.74
65371;DHT22;58485;59.934;30.352;2022-08-03T02:57:35;24.77;56.70
65371;DHT22;58485;59.934;30.352;2022-08-03T02:58:29;24.76;56.70
65371;DHT22;58485;59.934;30.352;2022-08-03T02:59:22;24.75;56.68
65371;DHT22;58485;59.934;30.352;2022-08-03T03:00:15;24.77;56.71
65371;DHT22;58485;59.934;30.352;2022-08-03T03:01:08;24.76;56.71
65371;DHT22;58485;59.934;30.352;2022-08-03T03:02:02;24.76;56.71
65371;DHT22;58485;59.934;30.352;2022-08-03T03:02:55;24.76;56.74
65371;DHT22;58485;59.934;30.352;2022-08-03T03:03:48;24.77;56.75
65371;DHT22;58485;59.934;30.352;2022-08-03T03:04:42;24.76;56.76
65371;DHT22;58485;59.934;30.352;2022-08-03T03:05:34;24.76;56.76
65371;DHT22;58485;59.934;30.352;2022-08-03T03:06:28;24.75;56.76
65371;DHT22;58485;59.934;30.352;2022-08-03T03:07:20;24.75;56.79
65371;DHT22;58485;59.934;30.352;2022-08-03T03:08:15;24.75;56.79
65371;DHT22;58485;59.934;30.352;2022-08-03T03:09:07;24.76;56.83
65371;DHT22;58485;59.934;30.352;2022-08-03T03:10:00;24.77;56.81
65371;DHT22;58485;59.934;30.352;2022-08-03T03:10:53;24.76;56.75
65371;DHT22;58485;59.934;30.352;2022-08-03T03:11:48;24.77;56.74
65371;DHT22;58485;59.934;30.352;2022-08-03T03:12:40;24.77;56.73
65371;DHT22;58485;59.934;30.352;2022-08-03T03:13:33;24.77;56.74
65371;DHT22;58485;59.934;30.352;2022-08-03T03:14:25;24.77;56.74
65371;DHT22;58485;59.934;30.352;2022-08-03T03:15:19;24.77;56.77
65371;DHT22;58485;59.934;30.352;2022-08-03T03:16:11;24.76;56.75
65371;DHT22;58485;59.934;30.352;2022-08-03T03:17:07;24.75;56.74
65371;DHT22;58485;59.934;30.352;2022-08-03T03:18:00;24.76;56.74
65371;DHT22;58485;59.934;30.352;2022-08-03T03:18:53;24.76;56.78
65371;DHT22;58485;59.934;30.352;2022-08-03T03:19:45;24.77;56.79
65371;DHT22;58485;59.934;30.352;2022-08-03T03:20:38;24.76;56.77
65371;DHT22;58485;59.934;30.352;2022-08-03T03:21:30;24.77;56.71
65371;DHT22;58485;59.934;30.352;2022-08-03T03:22:24;24.77;56.71
65371;DHT22;58485;59.934;30.352;2022-08-03T03:23:16;24.77;56.72
65371;DHT22;58485;59.934;30.352;2022-08-03T03:24:08;24.78;56.74
65371;DHT22;58485;59.934;30.352;2022-08-03T03:25:01;24.78;56.75
65371;DHT22;58485;59.934;30.352;2022-08-03T03:25:54;24.77;56.74
65371;DHT22;58485;59.934;30.352;2022-08-03T03:26:48;24.76;56.72
65371;DHT22;58485;59.934;30.352;2022-08-03T03:27:40;24.77;56.72
65371;DHT22;58485;59.934;30.352;2022-08-03T03:28:33;24.76;56.75
65371;DHT22;58485;59.934;30.352;2022-08-03T03:29:26;24.75;56.74
65371;DHT22;58485;59.934;30.352;2022-08-03T03:30:18;24.75;56.77
65371;DHT22;58485;59.934;30.352;2022-08-03T03:31:10;24.75;56.74
65371;DHT22;58485;59.934;30.352;2022-08-03T03:32:03;24.75;56.72
65371;DHT22;58485;59.934;30.352;2022-08-03T03:32:57;24.75;56.71
65371;DHT22;58485;59.934;30.352;2022-08-03T03:33:49;24.75;56.71
65371;DHT22;58485;59.934;30.352;2022-08-03T03:34:41;24.75;56.71
65371;DHT22;58485;59.934;30.352;2022-08-03T03:35:33;24.75;56.71
65371;DHT22;58485;59.934;30.352;2022-08-03T03:36:26;24.75;56.72
65371;DHT22;58485;59.934;30.352;2022-08-03T03:37:18;24.75;56.70
65371;DHT22;58485;59.934;30.352;2022-08-03T03:38:09;24.76;56.66
65371;DHT22;58485;59.934;30.352;2022-08-03T03:39:02;24.75;56.70
65371;DHT22;58485;59.934;30.352;2022-08-03T03:39:53;24.75;56.73
65371;DHT22;58485;59.934;30.352;2022-08-03T03:40:46;24.74;56.77
65371;DHT22;58485;59.934;30.352;2022-08-03T03:41:38;24.76;56.77
65371;DHT22;58485;59.934;30.352;2022-08-03T03:42:31;24.76;56.74
65371;DHT22;58485;59.934;30.352;2022-08-03T03:43:23;24.75;56.76
65371;DHT22;58485;59.934;30.352;2022-08-03T03:44:15;24.76;56.77
65371;DHT22;58485;59.934;30.352;2022-08-03T03:45:07;24.76;56.77
65371;DHT22;58485;59.934;30.352;2022-08-03T03:46:00;24.76;56.76
65371;DHT22;58485;59.934;30.352;2022-08-03T03:46:52;24.76;56.77
65371;DHT22;58485;59.934;30.352;2022-08-03T03:47:44;24.76;56.78
65371;DHT22;58485;59.934;30.352;2022-08-03T03:48:38;24.75;56.78
65371;DHT22;58485;59.934;30.352;2022-08-03T03:49:30;24.76;56.79
65371;DHT22;58485;59.934;30.352;2022-08-03T03:50:21;24.75;56.79
65371;DHT22;58485;59.934;30.352;2022-08-03T03:51:14;24.74;56.77
65371;DHT22;58485;59.934;30.352;2022-08-03T03:52:06;24.74;56.77
65371;DHT22;58485;59.934;30.352;2022-08-03T03:52:58;24.75;56.74
65371;DHT22;58485;59.934;30.352;2022-08-03T03:53:57;24.75;56.69
65371;DHT22;58485;59.934;30.352;2022-08-03T03:54:49;24.74;56.74
65371;DHT22;58485;59.934;30.352;2022-08-03T03:55:41;24.73;56.74
65371;DHT22;58485;59.934;30.352;2022-08-03T03:56:33;24.74;56.73
65371;DHT22;58485;59.934;30.352;2022-08-03T03:57:24;24.74;56.68
65371;DHT22;58485;59.934;30.352;2022-08-03T03:58:17;24.74;56.72
65371;DHT22;58485;59.934;30.352;2022-08-03T03:59:10;24.73;56.76
65371;DHT22;58485;59.934;30.352;2022-08-03T04:00:03;24.74;56.77
65371;DHT22;58485;59.934;30.352;2022-08-03T04:00:55;24.74;56.77
65371;DHT22;58485;59.934;30.352;2022-08-03T04:01:48;24.73;56.82
65371;DHT22;58485;59.934;30.352;2022-08-03T04:02:39;24.74;56.82
65371;DHT22;58485;59.934;30.352;2022-08-03T04:03:31;24.73;56.81
65371;DHT22;58485;59.934;30.352;2022-08-03T04:04:24;24.74;56.78
65371;DHT22;58485;59.934;30.352;2022-08-03T04:05:33;24.74;56.81
65371;DHT22;58485;59.934;30.352;2022-08-03T04:06:46;24.73;56.86
65371;DHT22;58485;59.934;30.352;2022-08-03T04:07:58;24.73;56.88
65371;DHT22;58485;59.934;30.352;2022-08-03T04:09:09;24.72;56.90
65371;DHT22;58485;59.934;30.352;2022-08-03T04:10:21;24.70;56.94
65371;DHT22;58485;59.934;30.352;2022-08-03T04:11:36;24.70;56.97
65371;DHT22;58485;59.934;30.352;2022-08-03T04:12:33;24.69;56.97
65371;DHT22;58485;59.934;30.352;2022-08-03T04:13:29;24.70;57.02
65371;DHT22;58485;59.934;30.352;2022-08-03T04:14:27;24.70;56.95
65371;DHT22;58485;59.934;30.352;2022-08-03T04:15:23;24.69;56.97
65371;DHT22;58485;59.934;30.352;2022-08-03T04:16:18;24.70;56.95
65371;DHT22;58485;59.934;30.352;2022-08-03T04:17:11;24.70;56.97
65371;DHT22;58485;59.934;30.352;2022-08-03T04:18:06;24.70;56.97
65371;DHT22;58485;59.934;30.352;2022-08-03T04:19:02;24.70;56.96
65371;DHT22;58485;59.934;30.352;2022-08-03T04:19:58;24.70;56.93
65371;DHT22;58485;59.934;30.352;2022-08-03T04:20:51;24.70;56.96
65371;DHT22;58485;59.934;30.352;2022-08-03T04:21:47;24.70;56.97
65371;DHT22;58485;59.934;30.352;2022-08-03T04:22:40;24.70;56.99
65371;DHT22;58485;59.934;30.352;2022-08-03T04:23:35;24.69;56.93
65371;DHT22;58485;59.934;30.352;2022-08-03T04:24:33;24.70;56.92
65371;DHT22;58485;59.934;30.352;2022-08-03T04:25:29;24.70;56.91
65371;DHT22;58485;59.934;30.352;2022-08-03T04:26:22;24.70;56.92
65371;DHT22;58485;59.934;30.352;2022-08-03T04:27:19;24.72;56.87
65371;DHT22;58485;59.934;30.352;2022-08-03T04:28:12;24.72;56.93
65371;DHT22;58485;59.934;30.352;2022-08-03T04:29:08;24.70;56.95
65371;DHT22;58485;59.934;30.352;2022-08-03T04:30:03;24.70;56.98
65371;DHT22;58485;59.934;30.352;2022-08-03T04:30:56;24.71;56.98
65371;DHT22;58485;59.934;30.352;2022-08-03T04:31:49;24.70;57.00
65371;DHT22;58485;59.934;30.352;2022-08-03T04:32:44;24.70;56.99
65371;DHT22;58485;59.934;30.352;2022-08-03T04:33:41;24.71;57.01
65371;DHT22;58485;59.934;30.352;2022-08-03T04:34:35;24.70;57.00
65371;DHT22;58485;59.934;30.352;2022-08-03T04:35:28;24.72;56.99
65371;DHT22;58485;59.934;30.352;2022-08-03T04:36:26;24.71;56.96
65371;DHT22;58485;59.934;30.352;2022-08-03T04:37:28;24.72;56.95
65371;DHT22;58485;59.934;30.352;2022-08-03T04:38:26;24.71;56.97
65371;DHT22;58485;59.934;30.352;2022-08-03T04:39:23;24.71;56.97
65371;DHT22;58485;59.934;30.352;2022-08-03T04:40:19;24.69;56.98
65371;DHT22;58485;59.934;30.352;2022-08-03T04:41:12;24.70;57.01
65371;DHT22;58485;59.934;30.352;2022-08-03T04:42:07;24.70;57.03
65371;DHT22;58485;59.934;30.352;2022-08-03T04:42:59;24.69;57.03
65371;DHT22;58485;59.934;30.352;2022-08-03T04:43:54;24.70;57.03
65371;DHT22;58485;59.934;30.352;2022-08-03T04:44:47;24.70;56.98
65371;DHT22;58485;59.934;30.352;2022-08-03T04:45:40;24.70;56.98
65371;DHT22;58485;59.934;30.352;2022-08-03T04:46:34;24.70;56.95
65371;DHT22;58485;59.934;30.352;2022-08-03T04:47:29;24.70;56.93
65371;DHT22;58485;59.934;30.352;2022-08-03T04:48:22;24.70;56.92
65371;DHT22;58485;59.934;30.352;2022-08-03T04:49:15;24.70;56.90
65371;DHT22;58485;59.934;30.352;2022-08-03T04:50:07;24.70;56.93
65371;DHT22;58485;59.934;30.352;2022-08-03T04:51:02;24.69;56.88
65371;DHT22;58485;59.934;30.352;2022-08-03T04:51:54;24.70;56.83
65371;DHT22;58485;59.934;30.352;2022-08-03T04:52:47;24.70;56.90
65371;DHT22;58485;59.934;30.352;2022-08-03T04:53:38;24.70;56.90
65371;DHT22;58485;59.934;30.352;2022-08-03T04:54:38;24.69;56.81
65371;DHT22;58485;59.934;30.352;2022-08-03T04:55:31;24.69;56.93
65371;DHT22;58485;59.934;30.352;2022-08-03T04:56:24;24.70;56.91
65371;DHT22;58485;59.934;30.352;2022-08-03T04:57:15;24.71;56.96
65371;DHT22;58485;59.934;30.352;2022-08-03T04:58:07;24.71;56.97
65371;DHT22;58485;59.934;30.352;2022-08-03T04:58:59;24.71;56.93
65371;DHT22;58485;59.934;30.352;2022-08-03T04:59:51;24.71;56.91
65371;DHT22;58485;59.934;30.352;2022-08-03T05:00:44;24.71;56.89
65371;DHT22;58485;59.934;30.352;2022-08-03T05:01:40;24.71;56.90
65371;DHT22;58485;59.934;30.352;2022-08-03T05:02:31;24.70;56.92
65371;DHT22;58485;59.934;30.352;2022-08-03T05:03:24;24.70;56.95
65371;DHT22;58485;59.934;30.352;2022-08-03T05:04:15;24.71;57.00
65371;DHT22;58485;59.934;30.352;2022-08-03T05:05:09;24.70;57.00
65371;DHT22;58485;59.934;30.352;2022-08-03T05:06:03;24.70;56.99
65371;DHT22;58485;59.934;30.352;2022-08-03T05:06:55;24.71;57.00
65371;DHT22;58485;59.934;30.352;2022-08-03T05:07:46;24.71;57.00
65371;DHT22;58485;59.934;30.352;2022-08-03T05:08:38;24.71;56.97
65371;DHT22;58485;59.934;30.352;2022-08-03T05:09:30;24.72;56.99
65371;DHT22;58485;59.934;30.352;2022-08-03T05:10:22;24.71;57.00
65371;DHT22;58485;59.934;30.352;2022-08-03T05:11:13;24.72;57.00
65371;DHT22;58485;59.934;30.352;2022-08-03T05:12:06;24.72;57.02
65371;DHT22;58485;59.934;30.352;2022-08-03T05:12:58;24.72;57.03
65371;DHT22;58485;59.934;30.352;2022-08-03T05:13:50;24.73;57.04
65371;DHT22;58485;59.934;30.352;2022-08-03T05:14:41;24.72;57.04
65371;DHT22;58485;59.934;30.352;2022-08-03T05:15:33;24.73;57.01
65371;DHT22;58485;59.934;30.352;2022-08-03T05:16:25;24.71;57.02
65371;DHT22;58485;59.934;30.352;2022-08-03T05:17:18;24.73;57.02
65371;DHT22;58485;59.934;30.352;2022-08-03T05:18:09;24.71;57.02
65371;DHT22;58485;59.934;30.352;2022-08-03T05:19:01;24.72;57.03
65371;DHT22;58485;59.934;30.352;2022-08-03T05:19:53;24.73;57.03
65371;DHT22;58485;59.934;30.352;2022-08-03T05:20:45;24.72;57.04
65371;DHT22;58485;59.934;30.352;2022-08-03T05:21:38;24.73;57.02
65371;DHT22;58485;59.934;30.352;2022-08-03T05:22:30;24.72;57.06
65371;DHT22;58485;59.934;30.352;2022-08-03T05:23:21;24.74;57.05
65371;DHT22;58485;59.934;30.352;2022-08-03T05:24:14;24.73;57.05
65371;DHT22;58485;59.934;30.352;2022-08-03T05:25:05;24.72;57.05
65371;DHT22;58485;59.934;30.352;2022-08-03T05:25:58;24.73;57.05
65371;DHT22;58485;59.934;30.352;2022-08-03T05:26:49;24.73;57.07
65371;DHT22;58485;59.934;30.352;2022-08-03T05:27:41;24.71;57.04
65371;DHT22;58485;59.934;30.352;2022-08-03T05:28:33;24.72;57.07
65371;DHT22;58485;59.934;30.352;2022-08-03T05:29:25;24.71;57.09
65371;DHT22;58485;59.934;30.352;2022-08-03T05:30:16;24.73;57.06
65371;DHT22;58485;59.934;30.352;2022-08-03T05:31:08;24.73;57.03
65371;DHT22;58485;59.934;30.352;2022-08-03T05:32:00;24.72;57.00
65371;DHT22;58485;59.934;30.352;2022-08-03T05:32:52;24.74;57.00
65371;DHT22;58485;59.934;30.352;2022-08-03T05:33:43;24.72;57.00
65371;DHT22;58485;59.934;30.352;2022-08-03T05:34:38;24.72;57.00
65371;DHT22;58485;59.934;30.352;2022-08-03T05:35:30;24.72;57.03
65371;DHT22;58485;59.934;30.352;2022-08-03T05:36:24;24.71;57.03
65371;DHT22;58485;59.934;30.352;2022-08-03T05:37:17;24.72;57.03
65371;DHT22;58485;59.934;30.352;2022-08-03T05:38:09;24.71;57.02